Time;durP1;ratioP1;P1;durP2;ratioP2;P2;SDS_P1;SDS_P2;PMS_P1;PMS_P2;Temp;Humidity;BMP_temperature;BMP_pressure;BME280_temperature;BME280_humidity;BME280_pressure;Samples;Min_cycle;Max_cycle;Signal;HPM_P1;HPM_P2
2021/10/10 00:00:15;;;;;;;64.43;32.03;;;;;;;5.97;100.00;102771.47;5222190;28;20017;-73
2021/10/10 00:02:46;;;;;;;65.32;29.80;;;;;;;5.93;100.00;102761.94;5223628;28;20059;-73
2021/10/10 00:05:17;;;;;;;102.38;30.02;;;;;;;5.87;100.00;102764.03;5224835;28;20146;-74
2021/10/10 00:07:47;;;;;;;68.90;19.00;;;;;;;5.79;100.00;102766.31;5223072;28;20044;-73
2021/10/10 00:10:18;;;;;;;52.65;15.73;;;;;;;5.68;100.00;102761.59;5222259;28;20025;-74
2021/10/10 00:12:48;;;;;;;110.63;25.10;;;;;;;5.62;100.00;102761.94;5221956;28;20435;-74
2021/10/10 00:15:19;;;;;;;97.00;20.27;;;;;;;5.58;100.00;102769.25;5221945;28;20047;-74
2021/10/10 00:17:49;;;;;;;253.00;29.27;;;;;;;5.56;100.00;102767.59;5221829;28;20017;-75
2021/10/10 00:20:20;;;;;;;157.55;27.80;;;;;;;5.52;100.00;102761.59;5221584;28;20025;-74
2021/10/10 00:22:51;;;;;;;104.28;24.85;;;;;;;5.49;100.00;102764.44;5221661;28;20033;-75
2021/10/10 00:25:21;;;;;;;202.02;27.40;;;;;;;5.45;100.00;102762.91;5236759;28;20486;-74
2021/10/10 00:27:52;;;;;;;56.17;19.98;;;;;;;5.38;100.00;102757.06;5221834;28;20037;-76
2021/10/10 00:30:23;;;;;;;90.03;20.92;;;;;;;5.34;100.00;102763.50;5221532;28;20023;-75
2021/10/10 00:32:54;;;;;;;122.03;23.80;;;;;;;5.27;100.00;102762.13;5225534;28;20386;-74
2021/10/10 00:35:24;;;;;;;45.70;23.75;;;;;;;5.21;100.00;102759.78;5225508;28;20486;-75
2021/10/10 00:37:55;;;;;;;54.83;27.48;;;;;;;5.21;100.00;102757.13;5225617;28;20041;-74
2021/10/10 00:40:25;;;;;;;60.03;27.70;;;;;;;5.24;100.00;102761.44;5225091;28;20104;-74
2021/10/10 00:42:56;;;;;;;137.32;26.73;;;;;;;5.21;100.00;102757.13;5224237;28;20390;-74
2021/10/10 00:45:26;;;;;;;49.88;23.95;;;;;;;5.20;100.00;102760.75;5225457;28;20512;-74
2021/10/10 00:47:57;;;;;;;58.25;28.30;;;;;;;5.19;100.00;102759.88;5225574;28;20544;-75
2021/10/10 00:50:29;;;;;;;69.80;31.90;;;;;;;5.21;100.00;102749.16;5224907;28;20029;-74
2021/10/10 00:53:01;;;;;;;457.20;38.80;;;;;;;5.20;100.00;102755.41;5225354;28;20029;-75
2021/10/10 00:55:33;;;;;;;340.67;29.30;;;;;;;5.13;100.00;102752.25;5225092;28;20024;-74
2021/10/10 00:58:06;;;;;;;56.50;23.45;;;;;;;5.08;100.00;102750.78;5225380;28;20136;-75
2021/10/10 01:00:38;;;;;;;59.95;27.02;;;;;;;5.04;100.00;102750.09;5224658;28;20017;-75
2021/10/10 01:03:08;;;;;;;73.78;27.48;;;;;;;5.02;100.00;102746.66;5225404;28;20028;-74
2021/10/10 01:05:39;;;;;;;52.80;25.67;;;;;;;5.02;100.00;102748.44;5225567;28;20504;-74
2021/10/10 01:08:13;;;;;;;45.67;23.15;;;;;;;5.00;100.00;102745.00;5225145;28;20246;-75
2021/10/10 01:10:45;;;;;;;56.92;25.67;;;;;;;4.97;100.00;102750.50;5225017;28;20433;-74
2021/10/10 01:13:17;;;;;;;121.20;30.58;;;;;;;4.93;100.00;102745.34;5224610;28;20029;-74
2021/10/10 01:15:50;;;;;;;96.38;32.50;;;;;;;4.89;100.00;102743.81;5224924;28;20028;-75
2021/10/10 01:18:34;;;;;;;71.40;29.50;;;;;;;4.87;100.00;102744.81;5224944;28;20028;-75
2021/10/10 01:21:04;;;;;;;76.18;30.73;;;;;;;4.85;100.00;102744.03;5224540;28;20017;-75
2021/10/10 01:23:35;;;;;;;135.30;33.53;;;;;;;4.83;100.00;102743.28;5224576;28;20048;-75
2021/10/10 01:26:14;;;;;;;122.30;36.72;;;;;;;4.81;100.00;102735.38;5224880;28;20021;-75
2021/10/10 01:28:45;;;;;;;81.05;32.22;;;;;;;4.78;100.00;102735.53;5224873;28;20698;-76
2021/10/10 01:31:24;;;;;;;177.20;33.13;;;;;;;4.79;100.00;102734.59;5224946;28;20032;-75
2021/10/10 01:33:54;;;;;;;125.63;23.98;;;;;;;4.78;100.00;102740.00;5224499;28;20372;-75
2021/10/10 01:36:26;;;;;;;72.15;25.15;;;;;;;4.75;100.00;102732.19;5224784;28;20059;-75
2021/10/10 01:38:57;;;;;;;166.10;33.92;;;;;;;4.75;100.00;102730.38;5224345;28;20033;-75
2021/10/10 01:41:27;;;;;;;274.88;43.03;;;;;;;4.76;100.00;102732.09;5224612;28;20051;-74
2021/10/10 01:43:58;;;;;;;147.77;37.63;;;;;;;4.79;100.00;102729.28;5224511;28;20028;-74
2021/10/10 01:46:34;;;;;;;103.18;37.97;;;;;;;4.83;100.00;102735.31;5224290;28;20029;-74
2021/10/10 01:49:11;;;;;;;179.90;40.17;;;;;;;4.88;100.00;102730.59;5224245;28;20052;-75
2021/10/10 01:51:43;;;;;;;225.80;39.22;;;;;;;4.89;100.00;102729.66;5224178;28;20036;-74
2021/10/10 01:54:13;;;;;;;207.80;38.75;;;;;;;4.88;100.00;102731.44;5224167;28;20082;-74
2021/10/10 01:56:44;;;;;;;99.03;38.15;;;;;;;4.89;100.00;102727.84;5223813;28;20025;-74
2021/10/10 01:59:15;;;;;;;139.57;43.47;;;;;;;4.92;100.00;102724.16;5223362;28;20025;-74
2021/10/10 02:01:46;;;;;;;133.38;43.97;;;;;;;4.97;100.00;102726.56;5223700;28;20025;-74
2021/10/10 02:04:16;;;;;;;255.50;51.17;;;;;;;5.03;100.00;102729.75;5222925;28;20017;-74
2021/10/10 02:06:47;;;;;;;167.77;48.85;;;;;;;5.08;100.00;102729.50;5223478;28;20036;-73
2021/10/10 02:09:18;;;;;;;196.98;46.75;;;;;;;5.13;100.00;102725.63;5223417;28;20025;-73
2021/10/10 02:11:49;;;;;;;127.85;44.78;;;;;;;5.17;100.00;102729.84;5223534;28;20021;-72
2021/10/10 02:14:20;;;;;;;152.18;43.65;;;;;;;5.19;100.00;102725.28;5223690;28;20029;-74
2021/10/10 02:16:50;;;;;;;134.73;42.42;;;;;;;5.20;100.00;102732.31;5223711;28;20369;-73
2021/10/10 02:19:21;;;;;;;144.75;45.17;;;;;;;5.19;100.00;102733.28;5223076;28;20021;-74
2021/10/10 02:21:52;;;;;;;198.65;42.15;;;;;;;5.20;100.00;102719.03;5223377;28;20029;-74
2021/10/10 02:24:22;;;;;;;125.28;40.67;;;;;;;5.16;100.00;102721.94;5223607;28;20033;-73
2021/10/10 02:26:53;;;;;;;141.80;40.85;;;;;;;5.15;100.00;102730.88;5223316;28;20017;-73
2021/10/10 02:29:23;;;;;;;132.18;40.22;;;;;;;5.13;100.00;102722.13;5222233;28;20021;-73
2021/10/10 02:31:55;;;;;;;125.07;39.45;;;;;;;5.09;100.00;102716.09;5223598;28;20039;-75
2021/10/10 02:34:25;;;;;;;143.82;42.55;;;;;;;5.08;100.00;102717.06;5223213;28;20036;-73
2021/10/10 02:36:56;;;;;;;165.95;40.53;;;;;;;5.09;100.00;102712.59;5223306;28;20020;-72
2021/10/10 02:39:26;;;;;;;173.68;42.15;;;;;;;5.06;100.00;102716.25;5222960;28;20109;-74
2021/10/10 02:41:57;;;;;;;267.65;42.45;;;;;;;5.03;100.00;102711.13;5223189;28;20029;-74
2021/10/10 02:44:27;;;;;;;99.25;40.35;;;;;;;5.02;100.00;102713.84;5223156;28;20028;-75
2021/10/10 02:46:58;;;;;;;85.97;37.03;;;;;;;5.04;100.00;102715.50;5222659;28;20032;-76
2021/10/10 02:49:29;;;;;;;191.35;42.65;;;;;;;5.02;100.00;102709.41;5224048;28;20020;-74
2021/10/10 02:51:59;;;;;;;151.80;39.85;;;;;;;4.99;100.00;102708.72;5227936;28;20356;-76
2021/10/10 02:54:29;;;;;;;162.98;38.30;;;;;;;4.92;100.00;102703.75;5222390;28;20037;-75
2021/10/10 02:57:00;;;;;;;127.22;36.95;;;;;;;4.88;100.00;102709.31;5223186;28;20391;-75
2021/10/10 02:59:30;;;;;;;126.65;36.88;;;;;;;4.83;100.00;102711.38;5222099;28;20299;-74
2021/10/10 03:02:01;;;;;;;144.52;39.30;;;;;;;4.76;100.00;102716.13;5222644;28;20021;-74
2021/10/10 03:04:31;;;;;;;124.80;39.95;;;;;;;4.73;100.00;102708.34;5222691;28;20565;-76
2021/10/10 03:07:02;;;;;;;164.88;39.90;;;;;;;4.71;100.00;102706.69;5222890;28;20500;-74
2021/10/10 03:09:33;;;;;;;131.85;38.83;;;;;;;4.67;100.00;102704.22;5222293;28;20430;-74
2021/10/10 03:12:03;;;;;;;87.25;37.90;;;;;;;4.64;100.00;102699.06;5222451;28;20025;-74
2021/10/10 03:14:34;;;;;;;132.98;39.45;;;;;;;4.64;100.00;102700.88;5222662;28;20490;-74
2021/10/10 03:17:05;;;;;;;180.80;38.50;;;;;;;4.64;100.00;102703.53;5222954;28;20071;-74
2021/10/10 03:19:35;;;;;;;132.73;37.83;;;;;;;4.59;100.00;102693.13;5222314;28;20170;-74
2021/10/10 03:22:06;;;;;;;89.45;37.78;;;;;;;4.57;100.00;102700.34;5222959;28;20021;-74
2021/10/10 03:24:36;;;;;;;119.80;38.80;;;;;;;4.57;100.00;102702.16;5222135;28;20090;-74
2021/10/10 03:27:07;;;;;;;131.82;38.58;;;;;;;4.57;100.00;102704.81;5222550;28;20570;-74
2021/10/10 03:29:37;;;;;;;175.88;38.03;;;;;;;4.54;100.00;102702.31;5222212;28;20268;-74
2021/10/10 03:32:08;;;;;;;155.95;38.13;;;;;;;4.52;100.00;102710.38;5222268;28;20017;-73
2021/10/10 03:34:39;;;;;;;171.43;36.03;;;;;;;4.47;100.00;102701.78;5222050;28;20032;-75
2021/10/10 03:37:10;;;;;;;144.80;36.13;;;;;;;4.44;100.00;102695.75;5221919;28;20021;-76
2021/10/10 03:39:40;;;;;;;159.52;35.08;;;;;;;4.37;100.00;102698.75;5221895;28;20052;-75
2021/10/10 03:42:11;;;;;;;131.07;33.53;;;;;;;4.26;100.00;102693.13;5222249;28;20410;-74
2021/10/10 03:44:42;;;;;;;96.07;32.80;;;;;;;4.20;100.00;102693.44;5222018;28;20029;-75
2021/10/10 03:47:15;;;;;;;146.15;35.28;;;;;;;4.17;100.00;102693.63;5221905;28;20483;-75
2021/10/10 03:49:45;;;;;;;123.65;35.15;;;;;;;4.15;100.00;102688.38;5221754;28;20032;-76
2021/10/10 03:52:16;;;;;;;107.68;35.90;;;;;;;4.13;100.00;102694.72;5222576;28;20031;-74
2021/10/10 03:57:35;;;;;;;117.18;37.00;;;;;;;4.13;100.00;102682.28;5222489;28;20029;-76
2021/10/10 04:00:10;;;;;;;196.30;41.15;;;;;;;4.15;100.00;102688.38;5220272;28;20478;-75
2021/10/10 04:02:42;;;;;;;200.75;40.38;;;;;;;4.15;100.00;102682.19;5222011;28;20031;-75
2021/10/10 04:07:50;;;;;;;161.40;40.35;;;;;;;4.11;100.00;102677.97;5225861;28;20025;-75
2021/10/10 04:10:21;;;;;;;117.05;38.97;;;;;;;4.09;100.00;102685.19;5225702;28;20028;-75
2021/10/10 04:12:52;;;;;;;118.88;40.38;;;;;;;4.04;100.00;102681.91;5226521;28;20652;-74
2021/10/10 04:15:23;;;;;;;135.20;38.30;;;;;;;3.96;100.00;102674.31;5226082;28;20437;-74
2021/10/10 04:17:54;;;;;;;98.90;38.10;;;;;;;3.89;100.00;102679.09;5241321;28;20479;-73
2021/10/10 04:20:24;;;;;;;102.80;38.25;;;;;;;3.82;100.00;102677.69;5226280;28;20025;-72
2021/10/10 04:22:55;;;;;;;92.45;38.35;;;;;;;3.76;100.00;102671.81;5225804;28;20541;-71
2021/10/10 04:25:25;;;;;;;120.53;37.33;;;;;;;3.71;100.00;102682.66;5225969;28;20540;-70
2021/10/10 04:27:56;;;;;;;90.63;36.33;;;;;;;3.65;100.00;102669.72;5225810;28;20033;-72
2021/10/10 04:30:26;;;;;;;71.03;34.03;;;;;;;3.76;100.00;102682.44;5225453;28;20079;-72
2021/10/10 04:32:57;;;;;;;63.83;34.00;;;;;;;3.76;100.00;102677.97;5225626;28;20024;-72
2021/10/10 04:35:27;;;;;;;68.85;33.45;;;;;;;3.70;100.00;102677.44;5225046;28;20037;-71
2021/10/10 04:37:58;;;;;;;73.55;36.90;;;;;;;3.66;100.00;102681.19;5225763;28;20033;-72
2021/10/10 04:40:28;;;;;;;71.93;36.28;;;;;;;3.61;100.00;102681.41;5225173;28;20033;-73
2021/10/10 04:42:59;;;;;;;67.35;32.35;;;;;;;3.57;100.00;102680.72;5226413;28;20124;-76
2021/10/10 04:45:29;;;;;;;71.93;35.38;;;;;;;3.59;100.00;102681.50;5225535;28;20074;-75
2021/10/10 04:48:00;;;;;;;73.85;35.17;;;;;;;3.64;100.00;102681.25;5225308;28;20032;-76
2021/10/10 04:50:30;;;;;;;70.82;34.55;;;;;;;3.67;100.00;102688.22;5225329;28;20019;-74
2021/10/10 04:53:01;;;;;;;73.80;35.05;;;;;;;3.67;100.00;102674.97;5225528;28;20023;-74
2021/10/10 04:55:31;;;;;;;70.70;31.92;;;;;;;3.67;100.00;102677.63;5225292;28;20048;-73
2021/10/10 04:58:02;;;;;;;72.82;32.08;;;;;;;3.65;100.00;102680.31;5225488;28;20140;-74
2021/10/10 05:00:32;;;;;;;91.50;34.85;;;;;;;3.69;100.00;102673.94;5224580;28;20017;-74
2021/10/10 05:03:04;;;;;;;75.68;36.15;;;;;;;3.70;100.00;102669.47;5224999;28;20045;-74
2021/10/10 05:05:35;;;;;;;76.63;36.50;;;;;;;3.74;100.00;102677.22;5225133;28;20037;-73
2021/10/10 05:08:05;;;;;;;80.10;35.88;;;;;;;3.78;100.00;102677.94;5225105;28;20291;-72
2021/10/10 05:10:36;;;;;;;90.95;36.20;;;;;;;3.84;100.00;102677.59;5224926;28;20028;-73
2021/10/10 05:13:07;;;;;;;125.85;36.67;;;;;;;3.88;100.00;102680.03;5224909;28;20074;-72
2021/10/10 05:15:37;;;;;;;115.78;40.15;;;;;;;3.94;100.00;102689.47;5224675;28;20033;-71
2021/10/10 05:18:08;;;;;;;140.50;41.65;;;;;;;4.00;100.00;102680.34;5224269;28;20036;-71
2021/10/10 05:20:38;;;;;;;127.95;41.53;;;;;;;4.06;100.00;102690.63;5224471;28;20025;-73
2021/10/10 05:23:10;;;;;;;152.13;41.83;;;;;;;4.10;100.00;102682.44;5228663;28;20086;-72
2021/10/10 05:25:42;;;;;;;124.03;40.95;;;;;;;4.13;100.00;102686.75;5236796;28;20032;-71
2021/10/10 05:28:12;;;;;;;146.15;42.70;;;;;;;4.14;100.00;102693.75;5211419;28;20028;-71
2021/10/10 05:30:43;;;;;;;104.22;41.65;;;;;;;4.17;100.00;102690.97;5224378;28;20351;-71
2021/10/10 05:33:13;;;;;;;137.25;42.40;;;;;;;4.21;100.00;102683.66;5224718;28;20021;-71
2021/10/10 05:35:44;;;;;;;120.38;40.70;;;;;;;4.23;100.00;102685.31;5224030;28;20417;-72
2021/10/10 05:38:14;;;;;;;163.60;42.08;;;;;;;4.26;100.00;102684.28;5224795;28;20090;-72
2021/10/10 05:40:45;;;;;;;135.32;40.40;;;;;;;4.27;100.00;102686.88;5224196;28;20032;-72
2021/10/10 05:43:15;;;;;;;133.45;41.15;;;;;;;4.29;100.00;102689.44;5224359;28;20052;-71
2021/10/10 05:45:46;;;;;;;171.88;38.83;;;;;;;4.31;100.00;102676.94;5224007;28;20029;-73
2021/10/10 05:48:16;;;;;;;206.20;43.92;;;;;;;4.32;100.00;102681.34;5224281;28;20068;-72
2021/10/10 05:50:46;;;;;;;303.42;44.90;;;;;;;4.29;100.00;102684.13;5223918;28;20086;-72
2021/10/10 05:53:17;;;;;;;117.20;41.10;;;;;;;4.29;100.00;102689.44;5223922;28;20076;-71
2021/10/10 05:55:48;;;;;;;165.32;44.17;;;;;;;4.32;100.00;102694.63;5224324;28;20107;-70
2021/10/10 05:58:20;;;;;;;170.50;45.80;;;;;;;4.35;100.00;102700.59;5224036;28;20031;-72
2021/10/10 06:00:51;;;;;;;153.65;43.13;;;;;;;4.39;100.00;102702.16;5223275;28;20506;-72
2021/10/10 06:03:21;;;;;;;154.30;43.58;;;;;;;4.45;100.00;102700.13;5223741;28;20032;-73
2021/10/10 06:05:52;;;;;;;111.50;42.92;;;;;;;4.48;100.00;102700.81;5223607;28;20025;-72
2021/10/10 06:08:22;;;;;;;156.85;44.25;;;;;;;4.52;100.00;102698.84;5223719;28;20021;-72
2021/10/10 06:10:53;;;;;;;154.80;44.60;;;;;;;4.53;100.00;102690.81;5223603;28;20052;-71
2021/10/10 06:13:23;;;;;;;150.70;42.42;;;;;;;4.56;100.00;102705.72;5223860;28;20057;-72
2021/10/10 06:15:55;;;;;;;151.88;43.60;;;;;;;4.59;100.00;102694.94;5223458;28;20360;-72
2021/10/10 06:18:27;;;;;;;143.82;44.67;;;;;;;4.62;100.00;102689.47;5210425;28;20166;-72
2021/10/10 06:20:57;;;;;;;267.42;47.08;;;;;;;4.65;100.00;102689.28;5223173;28;20029;-72
2021/10/10 06:23:28;;;;;;;296.95;50.65;;;;;;;4.64;100.00;102690.22;5223786;28;20543;-72
2021/10/10 06:25:58;;;;;;;149.93;41.00;;;;;;;4.63;100.00;102701.81;5223188;28;20449;-72
2021/10/10 06:28:29;;;;;;;147.93;42.83;;;;;;;4.63;100.00;102709.78;5222815;28;20024;-72
2021/10/10 06:30:59;;;;;;;164.40;45.25;;;;;;;4.62;100.00;102708.94;5222556;28;20505;-72
2021/10/10 06:33:29;;;;;;;193.13;44.78;;;;;;;4.68;100.00;102715.72;5223379;28;20051;-72
2021/10/10 06:36:00;;;;;;;166.02;42.50;;;;;;;4.75;100.00;102711.78;5222970;28;20063;-72
2021/10/10 06:38:31;;;;;;;167.85;41.42;;;;;;;4.80;100.00;102708.88;5223406;28;20032;-72
2021/10/10 06:41:01;;;;;;;156.90;43.90;;;;;;;4.86;100.00;102722.69;5222654;28;20035;-72
2021/10/10 06:43:32;;;;;;;110.80;44.85;;;;;;;4.97;100.00;102722.13;5223153;28;20429;-72
2021/10/10 06:46:02;;;;;;;180.13;43.92;;;;;;;5.07;100.00;102726.00;5223091;28;20029;-72
2021/10/10 06:48:33;;;;;;;162.98;41.30;;;;;;;5.16;100.00;102727.25;5222639;28;20017;-73
2021/10/10 06:51:03;;;;;;;197.98;42.75;;;;;;;5.22;100.00;102728.72;5222865;28;20532;-72
2021/10/10 06:53:34;;;;;;;177.60;38.42;;;;;;;5.22;100.00;102721.63;5222668;28;20402;-72
2021/10/10 06:56:04;;;;;;;192.25;39.42;;;;;;;5.27;100.00;102724.00;5223057;28;20052;-72
2021/10/10 06:58:35;;;;;;;240.50;41.55;;;;;;;5.29;100.00;102720.31;5222729;28;20028;-72
2021/10/10 07:01:05;;;;;;;212.63;39.45;;;;;;;5.28;100.00;102705.31;5222147;28;20079;-72
2021/10/10 07:03:36;;;;;;;326.08;45.35;;;;;;;5.33;100.00;102702.38;5222658;28;20032;-72
2021/10/10 07:06:06;;;;;;;167.35;38.92;;;;;;;5.42;100.00;102702.72;5222764;28;20522;-72
2021/10/10 07:08:37;;;;;;;174.32;41.90;;;;;;;5.50;100.00;102698.75;5238205;28;20017;-74
2021/10/10 07:11:08;;;;;;;196.40;38.42;;;;;;;5.50;100.00;102685.44;5222808;28;20067;-72
2021/10/10 07:13:38;;;;;;;362.83;43.42;;;;;;;5.44;100.00;102679.53;5222677;28;20482;-72
2021/10/10 07:16:09;;;;;;;219.43;37.50;;;;;;;5.48;100.00;102690.00;5223154;28;20024;-73
2021/10/10 07:18:47;;;;;;;97.38;34.65;;;;;;;5.56;100.00;102717.03;5222753;28;20028;-73
2021/10/10 07:26:24;;;;;;;102.68;36.70;;;;;;;5.87;100.00;102734.75;5221953;28;20024;-72
2021/10/10 07:28:55;;;;;;;131.95;37.53;;;;;;;6.00;100.00;102751.75;5222153;28;20107;-73
2021/10/10 07:31:25;;;;;;;76.10;38.67;;;;;;;6.19;100.00;102743.53;5222305;28;20107;-73
2021/10/10 07:33:56;;;;;;;173.90;37.92;;;;;;;6.31;100.00;102740.13;5222168;28;20021;-73
2021/10/10 07:36:26;;;;;;;100.10;32.08;;;;;;;6.36;100.00;102739.84;5221826;28;20023;-72
2021/10/10 07:38:57;;;;;;;130.30;34.50;;;;;;;6.49;100.00;102749.69;5221566;28;20032;-73
2021/10/10 07:41:27;;;;;;;145.77;33.92;;;;;;;6.54;100.00;102746.75;5222002;28;20024;-72
2021/10/10 07:43:58;;;;;;;118.22;34.15;;;;;;;6.65;100.00;102741.59;5222174;28;20388;-73
2021/10/10 07:46:33;;;;;;;138.57;33.95;;;;;;;6.66;100.00;102737.13;5222029;28;20116;-72
2021/10/10 07:49:05;;;;;;;144.50;33.40;;;;;;;6.67;100.00;102736.16;5221266;28;20086;-72
2021/10/10 07:51:36;;;;;;;75.50;31.10;;;;;;;6.73;100.00;102741.16;5222209;28;20028;-72
2021/10/10 07:54:06;;;;;;;71.90;32.88;;;;;;;6.77;100.00;102744.47;5221910;28;20033;-72
2021/10/10 07:56:37;;;;;;;121.70;33.67;;;;;;;6.86;100.00;102744.75;5221812;28;20036;-72
2021/10/10 07:59:07;;;;;;;121.15;34.35;;;;;;;6.95;100.00;102744.19;5221532;28;20021;-73
2021/10/10 08:01:38;;;;;;;80.10;34.05;;;;;;;7.12;100.00;102742.25;5221352;28;20029;-73
2021/10/10 08:04:08;;;;;;;73.68;32.80;;;;;;;7.11;100.00;102748.53;5222084;28;20052;-73
2021/10/10 08:06:39;;;;;;;82.20;34.63;;;;;;;7.05;100.00;102757.78;5221953;28;20029;-72
2021/10/10 08:09:09;;;;;;;170.10;36.67;;;;;;;7.06;100.00;102759.50;5221676;28;20079;-73
2021/10/10 08:11:40;;;;;;;117.40;33.30;;;;;;;7.12;100.00;102760.94;5221710;28;20025;-72
2021/10/10 08:14:11;;;;;;;170.57;36.70;;;;;;;7.16;100.00;102762.44;5221748;28;20025;-73
2021/10/10 08:16:43;;;;;;;188.32;38.15;;;;;;;7.25;100.00;102769.88;5221335;28;20029;-72
2021/10/10 08:19:15;;;;;;;175.43;41.03;;;;;;;7.36;100.00;102775.38;5221816;28;20029;-72
2021/10/10 08:21:46;;;;;;;71.85;33.10;;;;;;;7.49;100.00;102775.47;5221759;28;20074;-73
2021/10/10 08:24:18;;;;;;;187.98;33.47;;;;;;;7.46;100.00;102762.28;5222124;28;20017;-73
2021/10/10 08:26:49;;;;;;;99.22;34.25;;;;;;;7.55;100.00;102771.53;5221137;28;20067;-72
2021/10/10 08:29:19;;;;;;;65.85;32.60;;;;;;;7.72;100.00;102784.63;5221371;28;20049;-72
2021/10/10 08:31:50;;;;;;;156.32;36.88;;;;;;;7.79;100.00;102776.13;5221786;28;20277;-73
2021/10/10 08:34:20;;;;;;;70.15;35.70;;;;;;;7.86;100.00;102771.22;5221589;28;20078;-73
2021/10/10 08:36:51;;;;;;;80.47;34.55;;;;;;;8.00;100.00;102778.34;5221539;28;20128;-73
2021/10/10 08:39:24;;;;;;;71.57;33.45;;;;;;;8.14;100.00;102778.28;5220981;28;20263;-72
2021/10/10 08:41:57;;;;;;;70.53;30.90;;;;;;;8.31;100.00;102766.41;5221679;28;20029;-72
2021/10/10 08:44:34;;;;;;;274.80;38.08;;;;;;;8.34;100.00;102760.03;5221460;28;20064;-72
2021/10/10 08:47:12;;;;;;;194.68;35.47;;;;;;;8.35;100.00;102762.59;5221701;28;20064;-73
2021/10/10 08:49:44;;;;;;;231.70;39.45;;;;;;;8.32;100.00;102765.44;5221468;28;20474;-72
2021/10/10 08:52:14;;;;;;;175.43;36.88;;;;;;;8.42;100.00;102763.91;5222439;28;20031;-72
2021/10/10 08:54:45;;;;;;;187.55;38.08;;;;;;;8.50;100.00;102771.41;5225205;28;20025;-72
2021/10/10 08:57:17;;;;;;;205.23;37.25;;;;;;;8.61;100.00;102778.69;5225054;28;20032;-72
2021/10/10 08:59:53;;;;;;;85.93;35.53;;;;;;;8.70;100.00;102786.94;5224688;28;20033;-73
2021/10/10 09:02:31;;;;;;;122.75;35.38;;;;;;;8.81;100.00;102787.03;5225226;28;20060;-73
2021/10/10 09:05:06;;;;;;;140.52;39.17;;;;;;;8.95;100.00;102788.75;5225259;28;20032;-72
2021/10/10 09:07:37;;;;;;;89.65;38.25;;;;;;;9.16;100.00;102789.03;5223855;28;20025;-72
2021/10/10 09:10:19;;;;;;;81.65;38.20;;;;;;;9.44;100.00;102793.28;5224930;28;20189;-72
2021/10/10 09:12:49;;;;;;;129.23;39.10;;;;;;;9.58;100.00;102800.28;5223691;28;20493;-73
2021/10/10 09:15:22;;;;;;;81.95;34.10;;;;;;;9.94;100.00;102812.81;5224837;28;20102;-73
2021/10/10 09:17:56;;;;;;;90.32;35.28;;;;;;;9.93;100.00;102805.72;5224676;28;20079;-72
2021/10/10 09:20:33;;;;;;;110.72;38.85;;;;;;;9.83;100.00;102813.59;5224762;28;20025;-72
2021/10/10 09:23:07;;;;;;;70.93;34.22;;;;;;;9.85;100.00;102808.97;5224221;28;20025;-72
2021/10/10 09:25:52;;;;;;;87.97;40.00;;;;;;;9.89;100.00;102811.41;5224829;28;20024;-72
2021/10/10 09:28:24;;;;;;;91.40;43.22;;;;;;;9.91;100.00;102813.03;5224682;28;20041;-72
2021/10/10 09:30:59;;;;;;;93.32;42.33;;;;;;;10.13;100.00;102806.91;5224387;28;20043;-72
2021/10/10 09:33:46;;;;;;;88.53;42.37;;;;;;;10.28;100.00;102808.44;5224725;28;20067;-72
2021/10/10 09:36:21;;;;;;;88.70;42.10;;;;;;;10.43;100.00;102803.75;5223312;28;20302;-71
2021/10/10 09:41:44;;;;;;;93.68;43.15;;;;;;;10.64;100.00;102801.22;5224305;28;20103;-72
2021/10/10 09:44:20;;;;;;;91.50;43.63;;;;;;;10.81;100.00;102798.09;5224442;28;20021;-72
2021/10/10 09:46:51;;;;;;;99.38;46.70;;;;;;;10.83;100.00;102789.91;5224098;28;20025;-72
2021/10/10 09:49:26;;;;;;;116.85;49.63;;;;;;;10.79;100.00;102791.13;5223949;28;20029;-72
2021/10/10 09:52:09;;;;;;;97.55;46.95;;;;;;;11.09;100.00;102783.34;5224127;28;20063;-73
2021/10/10 09:54:58;;;;;;;118.25;51.38;;;;;;;11.16;100.00;102786.41;5224124;28;20044;-73
2021/10/10 09:57:28;;;;;;;121.60;48.15;;;;;;;11.15;100.00;102784.69;5211731;28;20028;-73
2021/10/10 09:59:59;;;;;;;111.80;50.97;;;;;;;11.06;100.00;102775.53;5223982;28;20508;-73
2021/10/10 10:02:39;;;;;;;117.93;53.25;;;;;;;10.98;100.00;102780.66;5224183;28;20024;-73
2021/10/10 10:05:23;;;;;;;121.18;52.10;;;;;;;10.86;100.00;102782.47;5223903;28;20037;-73
2021/10/10 10:07:55;;;;;;;116.72;52.80;;;;;;;10.70;100.00;102779.31;5223830;28;20033;-72
2021/10/10 10:10:28;;;;;;;125.10;55.42;;;;;;;10.66;100.00;102779.66;5223634;28;20013;-73
2021/10/10 10:13:01;;;;;;;125.00;55.17;;;;;;;10.68;100.00;102773.19;5223377;28;20039;-73
2021/10/10 10:15:34;;;;;;;135.93;57.92;;;;;;;10.74;100.00;102774.53;5223741;28;20024;-73
2021/10/10 10:18:05;;;;;;;141.43;61.13;;;;;;;10.91;100.00;102762.47;5223589;28;20053;-73
2021/10/10 10:20:36;;;;;;;139.27;58.22;;;;;;;11.17;100.00;102771.97;5223531;28;20104;-72
2021/10/10 10:23:08;;;;;;;127.03;54.85;;;;;;;11.24;100.00;102765.13;5223463;28;20025;-73
2021/10/10 10:25:38;;;;;;;127.13;56.03;;;;;;;11.37;100.00;102765.00;5223679;28;20024;-72
2021/10/10 10:28:10;;;;;;;123.75;53.63;;;;;;;11.45;100.00;102767.94;5210529;28;20032;-72
2021/10/10 10:30:41;;;;;;;133.75;57.35;;;;;;;11.61;100.00;102771.06;5223051;28;20029;-72
2021/10/10 10:33:12;;;;;;;125.38;55.92;;;;;;;11.71;100.00;102770.31;5223512;28;20478;-72
2021/10/10 10:35:44;;;;;;;125.75;55.35;;;;;;;11.86;100.00;102771.75;5221703;28;20095;-72
2021/10/10 10:38:15;;;;;;;119.55;53.65;;;;;;;12.15;100.00;102777.38;5223315;28;20061;-72
2021/10/10 10:40:45;;;;;;;114.90;53.35;;;;;;;12.27;100.00;102786.25;5222463;28;20517;-72
2021/10/10 10:43:34;;;;;;;115.03;57.30;;;;;;;12.26;100.00;102787.22;5223296;28;20169;-73
2021/10/10 10:46:07;;;;;;;101.82;51.03;;;;;;;12.57;100.00;102789.00;5210076;28;20025;-73
2021/10/10 10:48:38;;;;;;;106.95;50.38;;;;;;;12.61;100.00;102790.44;5223238;28;20059;-73
2021/10/10 10:51:17;;;;;;;105.32;50.47;;;;;;;12.82;100.00;102794.97;5222666;28;20029;-73
2021/10/10 10:53:49;;;;;;;100.82;49.60;;;;;;;12.86;100.00;102794.56;5217547;28;20029;-72
2021/10/10 10:56:29;;;;;;;102.53;50.70;;;;;;;13.10;100.00;102785.28;5221021;28;20108;-72
2021/10/10 10:58:59;;;;;;;117.30;53.92;;;;;;;12.99;100.00;102761.97;5206889;28;20040;-72
2021/10/10 11:01:58;;;;;;;105.72;51.85;;;;;;;13.26;100.00;102765.97;5218980;28;20052;-72
2021/10/10 11:04:29;;;;;;;113.97;57.17;;;;;;;13.43;100.00;102776.06;5220848;28;20492;-72
2021/10/10 11:07:08;;;;;;;122.32;55.42;;;;;;;13.72;100.00;102781.53;5220292;28;20016;-72
2021/10/10 11:09:45;;;;;;;111.70;53.13;;;;;;;14.02;100.00;102783.25;5220697;28;20036;-73
2021/10/10 11:12:27;;;;;;;109.60;52.05;;;;;;;14.26;100.00;102774.72;5220311;28;20682;-72
2021/10/10 11:15:10;;;;;;;95.35;47.20;;;;;;;14.62;100.00;102775.84;5219669;28;20393;-73
2021/10/10 11:17:54;;;;;;;101.68;49.45;;;;;;;14.67;100.00;102778.09;5218623;28;20127;-72
2021/10/10 11:20:24;;;;;;;100.90;48.88;;;;;;;14.79;100.00;102771.50;5220083;28;20021;-73
2021/10/10 11:22:55;;;;;;;97.07;48.83;;;;;;;14.80;100.00;102766.94;5220349;28;20017;-72
2021/10/10 11:25:29;;;;;;;94.28;50.50;;;;;;;14.81;100.00;102768.66;5220021;28;20238;-73
2021/10/10 11:28:00;;;;;;;98.78;50.60;;;;;;;15.00;100.00;102755.06;5219255;28;20395;-73
2021/10/10 11:30:30;;;;;;;101.28;50.03;;;;;;;15.10;100.00;102753.16;5218757;28;20059;-73
2021/10/10 11:33:01;;;;;;;91.15;46.70;;;;;;;15.20;100.00;102751.25;5219985;28;20035;-74
2021/10/10 11:35:31;;;;;;;96.18;47.70;;;;;;;15.35;100.00;102748.91;5218450;28;20341;-73